JAF7JV LEPA-EBBR
Flight info
| Callsign | JAF7JV |
|---|---|
| Flight time | 1h 54m |
| Altitude | 36000 |
| Route | GALAT DCT RODRA N861 OLOXO DCT OKABI DCT TOU DCT ADABI DCT BOKNO UN858 VANAD UN874 BAMES UT191 PODEM UN873 BAZOS DCT BELDI DCT VEKIN Z173 ARVOL |
| Aircraft | B738/M-SDE2E3FGHIRWXY/LB1 |
Departure
| Time | 2026-05-07 17:55 |
|---|---|
| Airport | Palma de Mallorca Airport (LEPA) |
Arrival
| Time | 2026-05-07 19:50 |
|---|---|
| Airport | Brussels Airport (EBBR) |
| Time | Latitude | Longitude | Altitude | Speed | Heading |
|---|---|---|---|---|---|
| 2026-05-07 17:03 | 39.54469 | 2.73134 | 36 ft | 0 kts | 344° |
| 2026-05-07 17:43 | 39.54448 | 2.73140 | 36 ft | 2 kts | 347° |
| 2026-05-07 17:43 | 39.54424 | 2.73144 | 37 ft | 4 kts | 13° |
| 2026-05-07 17:44 | 39.54402 | 2.73128 | 35 ft | 4 kts | 51° |
| 2026-05-07 17:44 | 39.54393 | 2.73113 | 34 ft | 1 kts | 57° |
| 2026-05-07 17:44 | 39.54392 | 2.73111 | 34 ft | 0 kts | 57° |
| 2026-05-07 17:49 | 39.54395 | 2.73117 | 34 ft | 3 kts | 57° |
| 2026-05-07 17:49 | 39.54416 | 2.73159 | 37 ft | 7 kts | 61° |
| 2026-05-07 17:49 | 39.54404 | 2.73219 | 37 ft | 8 kts | 143° |
| 2026-05-07 17:49 | 39.54357 | 2.73209 | 35 ft | 7 kts | 227° |
| 2026-05-07 17:50 | 39.54322 | 2.73163 | 37 ft | 7 kts | 201° |
| 2026-05-07 17:50 | 39.54291 | 2.73173 | 37 ft | 3 kts | 151° |
| 2026-05-07 17:50 | 39.54275 | 2.73191 | 37 ft | 3 kts | 120° |
| 2026-05-07 17:50 | 39.54270 | 2.73220 | 37 ft | 0 kts | 98° |
| 2026-05-07 17:52 | 39.54269 | 2.73226 | 37 ft | 5 kts | 96° |
| 2026-05-07 17:52 | 39.54268 | 2.73312 | 37 ft | 11 kts | 91° |
| 2026-05-07 17:52 | 39.54267 | 2.73409 | 37 ft | 11 kts | 90° |
| 2026-05-07 17:52 | 39.54279 | 2.73492 | 35 ft | 2 kts | 60° |
| 2026-05-07 17:53 | 39.54279 | 2.73493 | 35 ft | 0 kts | 59° |
| 2026-05-07 17:55 | 39.54285 | 2.73505 | 37 ft | 6 kts | 59° |
| 2026-05-07 17:55 | 39.54456 | 2.73865 | 37 ft | 90 kts | 58° |
| 2026-05-07 17:55 | 39.54922 | 2.74846 | 98 ft | 158 kts | 58° |
| 2026-05-07 17:55 | 39.55485 | 2.76084 | 1078 ft | 153 kts | 60° |
| 2026-05-07 17:56 | 39.56007 | 2.77266 | 2156 ft | 154 kts | 59° |
| 2026-05-07 17:56 | 39.56608 | 2.78557 | 2610 ft | 184 kts | 60° |
| 2026-05-07 17:56 | 39.57286 | 2.80054 | 2988 ft | 204 kts | 61° |
| 2026-05-07 17:56 | 39.58022 | 2.81671 | 3586 ft | 209 kts | 59° |
| 2026-05-07 17:57 | 39.58781 | 2.83293 | 4296 ft | 212 kts | 59° |
| 2026-05-07 17:57 | 39.59302 | 2.84411 | 4741 ft | 215 kts | 60° |
| 2026-05-07 17:57 | 39.60310 | 2.86584 | 5516 ft | 209 kts | 60° |
| 2026-05-07 17:57 | 39.61065 | 2.88222 | 5947 ft | 215 kts | 60° |
| 2026-05-07 17:58 | 39.61854 | 2.89940 | 6346 ft | 225 kts | 60° |
| 2026-05-07 17:58 | 39.62841 | 2.91486 | 7067 ft | 227 kts | 33° |
| 2026-05-07 17:58 | 39.64384 | 2.91912 | 7695 ft | 237 kts | 352° |
| 2026-05-07 17:58 | 39.65855 | 2.90926 | 8252 ft | 248 kts | 312° |
| 2026-05-07 17:59 | 39.66781 | 2.89106 | 8945 ft | 248 kts | 294° |
| 2026-05-07 17:59 | 39.67277 | 2.87131 | 9504 ft | 252 kts | 282° |
| 2026-05-07 17:59 | 39.67841 | 2.84933 | 9821 ft | 269 kts | 301° |
| 2026-05-07 17:59 | 39.68946 | 2.82906 | 10217 ft | 278 kts | 307° |
| 2026-05-07 18:00 | 39.70093 | 2.80880 | 10816 ft | 280 kts | 306° |
| 2026-05-07 18:00 | 39.71246 | 2.78809 | 11313 ft | 286 kts | 306° |
| 2026-05-07 18:00 | 39.72397 | 2.76709 | 11981 ft | 285 kts | 305° |
| 2026-05-07 18:00 | 39.73545 | 2.74585 | 12542 ft | 289 kts | 305° |
| 2026-05-07 18:01 | 39.74700 | 2.72426 | 13113 ft | 293 kts | 304° |
| 2026-05-07 18:01 | 39.75884 | 2.70198 | 13446 ft | 311 kts | 304° |
| 2026-05-07 18:01 | 39.77156 | 2.67794 | 13652 ft | 334 kts | 304° |
| 2026-05-07 18:01 | 39.78510 | 2.65224 | 13837 ft | 356 kts | 304° |
| 2026-05-07 18:02 | 39.81460 | 2.59608 | 14192 ft | 394 kts | 304° |
| 2026-05-07 18:02 | 39.83018 | 2.56633 | 14660 ft | 402 kts | 304° |
| 2026-05-07 18:02 | 39.84598 | 2.53611 | 15266 ft | 406 kts | 303° |
| 2026-05-07 18:03 | 39.86191 | 2.50561 | 15858 ft | 410 kts | 303° |
| 2026-05-07 18:03 | 39.87803 | 2.47473 | 16416 ft | 415 kts | 303° |
| 2026-05-07 18:03 | 39.89229 | 2.44737 | 16894 ft | 419 kts | 303° |
| 2026-05-07 18:03 | 39.90831 | 2.41660 | 17428 ft | 424 kts | 303° |
| 2026-05-07 18:04 | 39.92493 | 2.38463 | 17969 ft | 428 kts | 303° |
| 2026-05-07 18:04 | 39.94171 | 2.35235 | 18485 ft | 432 kts | 303° |
| 2026-05-07 18:04 | 39.95859 | 2.31985 | 19058 ft | 433 kts | 302° |
| 2026-05-07 18:04 | 39.97544 | 2.28737 | 19673 ft | 433 kts | 302° |
| 2026-05-07 18:05 | 39.99123 | 2.25691 | 20436 ft | 427 kts | 302° |
| 2026-05-07 18:05 | 40.00792 | 2.22467 | 20906 ft | 431 kts | 302° |
| 2026-05-07 18:05 | 40.02474 | 2.19214 | 21441 ft | 433 kts | 302° |
| 2026-05-07 18:05 | 40.04161 | 2.15947 | 21906 ft | 436 kts | 302° |
| 2026-05-07 18:06 | 40.05864 | 2.12646 | 22275 ft | 441 kts | 302° |
| 2026-05-07 18:06 | 40.07563 | 2.09349 | 22644 ft | 446 kts | 302° |
| 2026-05-07 18:06 | 40.09322 | 2.05934 | 23064 ft | 449 kts | 302° |
| 2026-05-07 18:06 | 40.11045 | 2.02585 | 23495 ft | 452 kts | 301° |
| 2026-05-07 18:07 | 40.12809 | 1.99164 | 23854 ft | 455 kts | 303° |
| 2026-05-07 18:07 | 40.14921 | 1.96061 | 24175 ft | 463 kts | 319° |
| 2026-05-07 18:07 | 40.17662 | 1.93817 | 24544 ft | 468 kts | 335° |
| 2026-05-07 18:07 | 40.20422 | 1.92668 | 24857 ft | 472 kts | 348° |
| 2026-05-07 18:08 | 40.23570 | 1.91921 | 25190 ft | 474 kts | 350° |
| 2026-05-07 18:08 | 40.26752 | 1.91247 | 25448 ft | 479 kts | 349° |
| 2026-05-07 18:08 | 40.30042 | 1.90565 | 25677 ft | 484 kts | 349° |
| 2026-05-07 18:08 | 40.33325 | 1.89867 | 25835 ft | 490 kts | 348° |
| 2026-05-07 18:09 | 40.36692 | 1.89124 | 26178 ft | 492 kts | 348° |
| 2026-05-07 18:09 | 40.40063 | 1.88357 | 26546 ft | 493 kts | 348° |
| 2026-05-07 18:09 | 40.43450 | 1.87572 | 26843 ft | 496 kts | 348° |
| 2026-05-07 18:09 | 40.46856 | 1.86773 | 27123 ft | 499 kts | 348° |
| 2026-05-07 18:10 | 40.50276 | 1.85968 | 27414 ft | 501 kts | 348° |
| 2026-05-07 18:10 | 40.53718 | 1.85157 | 27676 ft | 504 kts | 348° |
| 2026-05-07 18:10 | 40.57177 | 1.84342 | 27927 ft | 506 kts | 348° |
| 2026-05-07 18:10 | 40.60656 | 1.83523 | 28187 ft | 509 kts | 348° |
| 2026-05-07 18:11 | 40.64152 | 1.82700 | 28442 ft | 512 kts | 348° |
| 2026-05-07 18:11 | 40.66474 | 1.82153 | 28623 ft | 513 kts | 348° |
| 2026-05-07 18:11 | 40.71181 | 1.81045 | 29098 ft | 513 kts | 348° |
| 2026-05-07 18:11 | 40.74690 | 1.80217 | 29485 ft | 513 kts | 348° |
| 2026-05-07 18:12 | 40.78200 | 1.79388 | 29837 ft | 513 kts | 348° |
| 2026-05-07 18:12 | 40.81717 | 1.78556 | 30155 ft | 513 kts | 348° |
| 2026-05-07 18:12 | 40.85232 | 1.77723 | 30471 ft | 513 kts | 348° |
| 2026-05-07 18:12 | 40.88736 | 1.76893 | 30847 ft | 511 kts | 348° |
| 2026-05-07 18:13 | 40.92236 | 1.76062 | 31212 ft | 510 kts | 347° |
| 2026-05-07 18:13 | 40.95687 | 1.75242 | 31495 ft | 511 kts | 347° |
| 2026-05-07 18:13 | 40.99234 | 1.74398 | 31823 ft | 510 kts | 346° |
| 2026-05-07 18:13 | 41.02673 | 1.73579 | 32194 ft | 509 kts | 346° |
| 2026-05-07 18:14 | 41.06159 | 1.72783 | 32574 ft | 508 kts | 348° |
| 2026-05-07 18:14 | 41.09662 | 1.72188 | 32915 ft | 508 kts | 350° |
| 2026-05-07 18:14 | 41.13184 | 1.71714 | 33237 ft | 508 kts | 351° |
| 2026-05-07 18:14 | 41.16748 | 1.71244 | 33553 ft | 508 kts | 350° |
| 2026-05-07 18:15 | 41.20211 | 1.70748 | 33883 ft | 506 kts | 349° |
| 2026-05-07 18:15 | 41.23704 | 1.70206 | 34196 ft | 505 kts | 348° |
| 2026-05-07 18:15 | 41.27177 | 1.69629 | 34544 ft | 502 kts | 348° |
| 2026-05-07 18:15 | 41.30632 | 1.69081 | 34926 ft | 498 kts | 349° |
| 2026-05-07 18:16 | 41.34062 | 1.68563 | 35329 ft | 494 kts | 349° |
| 2026-05-07 18:16 | 41.37463 | 1.68051 | 35726 ft | 490 kts | 348° |
| 2026-05-07 18:16 | 41.40839 | 1.67536 | 35985 ft | 489 kts | 348° |
| 2026-05-07 18:17 | 41.47646 | 1.66497 | 35976 ft | 493 kts | 348° |
| 2026-05-07 18:17 | 41.54443 | 1.65441 | 35961 ft | 489 kts | 348° |
| 2026-05-07 18:18 | 41.61165 | 1.64365 | 35981 ft | 485 kts | 348° |
| 2026-05-07 18:18 | 41.67860 | 1.63293 | 35975 ft | 484 kts | 348° |
| 2026-05-07 18:19 | 41.74467 | 1.62237 | 35969 ft | 482 kts | 348° |
| 2026-05-07 18:19 | 41.80648 | 1.61254 | 35970 ft | 483 kts | 348° |
| 2026-05-07 18:20 | 41.87291 | 1.60212 | 35974 ft | 484 kts | 348° |
| 2026-05-07 18:20 | 41.93992 | 1.59160 | 35960 ft | 486 kts | 348° |
| 2026-05-07 18:21 | 42.00720 | 1.58101 | 35970 ft | 488 kts | 348° |
| 2026-05-07 18:21 | 42.07471 | 1.57033 | 35969 ft | 490 kts | 348° |
| 2026-05-07 18:22 | 42.14255 | 1.55959 | 35971 ft | 491 kts | 348° |
| 2026-05-07 18:22 | 42.21053 | 1.54880 | 35994 ft | 492 kts | 348° |
| 2026-05-07 18:23 | 42.26714 | 1.53981 | 35980 ft | 493 kts | 348° |
| 2026-05-07 18:23 | 42.33524 | 1.52895 | 35978 ft | 492 kts | 348° |
| 2026-05-07 18:24 | 42.39130 | 1.51998 | 35963 ft | 483 kts | 349° |
| 2026-05-07 18:25 | 42.42905 | 1.51398 | 35970 ft | 476 kts | 349° |
| 2026-05-07 18:25 | 42.49472 | 1.50348 | 35976 ft | 475 kts | 349° |
| 2026-05-07 18:26 | 42.55990 | 1.49303 | 35955 ft | 474 kts | 349° |
| 2026-05-07 18:26 | 42.62543 | 1.48249 | 35967 ft | 474 kts | 349° |
| 2026-05-07 18:27 | 42.69101 | 1.47194 | 35970 ft | 474 kts | 349° |
| 2026-05-07 18:27 | 42.75678 | 1.46134 | 36045 ft | 478 kts | 349° |
| 2026-05-07 18:27 | 42.78977 | 1.45602 | 36286 ft | 476 kts | 349° |
| 2026-05-07 18:28 | 42.82253 | 1.45074 | 36659 ft | 473 kts | 349° |
| 2026-05-07 18:28 | 42.85508 | 1.44550 | 37000 ft | 470 kts | 349° |
| 2026-05-07 18:28 | 42.88665 | 1.44038 | 37185 ft | 471 kts | 349° |
| 2026-05-07 18:28 | 42.91920 | 1.43509 | 37353 ft | 472 kts | 349° |
| 2026-05-07 18:29 | 42.95184 | 1.42979 | 37547 ft | 472 kts | 349° |
| 2026-05-07 18:29 | 42.98431 | 1.42453 | 37833 ft | 469 kts | 349° |
| 2026-05-07 18:29 | 43.01674 | 1.41926 | 37957 ft | 470 kts | 349° |
| 2026-05-07 18:30 | 43.08195 | 1.40863 | 37946 ft | 471 kts | 349° |
| 2026-05-07 18:30 | 43.14684 | 1.39806 | 37934 ft | 468 kts | 349° |
| 2026-05-07 18:31 | 43.21131 | 1.38752 | 37935 ft | 465 kts | 349° |
| 2026-05-07 18:31 | 43.27539 | 1.37702 | 37934 ft | 463 kts | 349° |
| 2026-05-07 18:32 | 43.33929 | 1.36652 | 37936 ft | 462 kts | 349° |
| 2026-05-07 18:32 | 43.40311 | 1.35601 | 37933 ft | 462 kts | 349° |
| 2026-05-07 18:33 | 43.46705 | 1.34546 | 37934 ft | 463 kts | 349° |
| 2026-05-07 18:33 | 43.53109 | 1.33487 | 37934 ft | 464 kts | 349° |
| 2026-05-07 18:34 | 43.59534 | 1.32422 | 37942 ft | 466 kts | 349° |
| 2026-05-07 18:34 | 43.65976 | 1.31353 | 37945 ft | 467 kts | 349° |
| 2026-05-07 18:35 | 43.72402 | 1.30052 | 37946 ft | 466 kts | 346° |
| 2026-05-07 18:35 | 43.78734 | 1.28378 | 37942 ft | 467 kts | 345° |
| 2026-05-07 18:36 | 43.85116 | 1.26649 | 37943 ft | 468 kts | 345° |
| 2026-05-07 18:36 | 43.91514 | 1.24959 | 37936 ft | 468 kts | 346° |
| 2026-05-07 18:37 | 43.97924 | 1.23291 | 37935 ft | 469 kts | 346° |
| 2026-05-07 18:37 | 44.04328 | 1.21630 | 37941 ft | 468 kts | 346° |
| 2026-05-07 18:38 | 44.10734 | 1.19963 | 37935 ft | 468 kts | 346° |
| 2026-05-07 18:38 | 44.17124 | 1.18295 | 37939 ft | 467 kts | 346° |
| 2026-05-07 18:39 | 44.23510 | 1.16624 | 37952 ft | 467 kts | 346° |
| 2026-05-07 18:39 | 44.29889 | 1.14951 | 37939 ft | 467 kts | 346° |
| 2026-05-07 18:40 | 44.36269 | 1.13274 | 37942 ft | 466 kts | 346° |
| 2026-05-07 18:40 | 44.42643 | 1.11595 | 37951 ft | 466 kts | 346° |
| 2026-05-07 18:41 | 44.49013 | 1.09914 | 37953 ft | 466 kts | 346° |
| 2026-05-07 18:41 | 44.55387 | 1.08227 | 37949 ft | 466 kts | 346° |
| 2026-05-07 18:42 | 44.61766 | 1.06535 | 37948 ft | 467 kts | 346° |
| 2026-05-07 18:42 | 44.68151 | 1.04838 | 37950 ft | 467 kts | 346° |
| 2026-05-07 18:43 | 44.74547 | 1.03135 | 37939 ft | 468 kts | 346° |
| 2026-05-07 18:43 | 44.80946 | 1.01426 | 37952 ft | 468 kts | 346° |
| 2026-05-07 18:44 | 44.87352 | 0.99712 | 37936 ft | 469 kts | 346° |
| 2026-05-07 18:44 | 44.93764 | 0.97992 | 37941 ft | 469 kts | 346° |
| 2026-05-07 18:45 | 45.00184 | 0.96267 | 37966 ft | 470 kts | 346° |
| 2026-05-07 18:45 | 45.06611 | 0.94535 | 37948 ft | 470 kts | 346° |
| 2026-05-07 18:46 | 45.13048 | 0.92797 | 37950 ft | 470 kts | 346° |
| 2026-05-07 18:46 | 45.19480 | 0.91056 | 37939 ft | 470 kts | 346° |
| 2026-05-07 18:47 | 45.25908 | 0.89313 | 37939 ft | 470 kts | 346° |
| 2026-05-07 18:47 | 45.32336 | 0.87565 | 37945 ft | 470 kts | 346° |
| 2026-05-07 18:48 | 45.38757 | 0.85815 | 37949 ft | 470 kts | 346° |
| 2026-05-07 18:48 | 45.45170 | 0.84064 | 37950 ft | 469 kts | 346° |
| 2026-05-07 18:49 | 45.51583 | 0.82308 | 37951 ft | 469 kts | 346° |
| 2026-05-07 18:49 | 45.57980 | 0.80552 | 37977 ft | 468 kts | 345° |
| 2026-05-07 18:50 | 45.64333 | 0.78804 | 37965 ft | 468 kts | 345° |
| 2026-05-07 18:50 | 45.70731 | 0.77040 | 37970 ft | 468 kts | 346° |
| 2026-05-07 18:51 | 45.77124 | 0.75274 | 37961 ft | 468 kts | 346° |
| 2026-05-07 18:51 | 45.83514 | 0.73504 | 37962 ft | 468 kts | 346° |
| 2026-05-07 18:52 | 45.89897 | 0.71732 | 37966 ft | 467 kts | 346° |
| 2026-05-07 18:52 | 45.96282 | 0.69955 | 37964 ft | 467 kts | 346° |
| 2026-05-07 18:53 | 46.02658 | 0.68176 | 37969 ft | 467 kts | 346° |
| 2026-05-07 18:53 | 46.09038 | 0.66392 | 37956 ft | 467 kts | 346° |
| 2026-05-07 18:54 | 46.15410 | 0.64607 | 37959 ft | 466 kts | 346° |
| 2026-05-07 18:54 | 46.21779 | 0.62817 | 37964 ft | 466 kts | 345° |
| 2026-05-07 18:55 | 46.28104 | 0.61036 | 37955 ft | 466 kts | 345° |
| 2026-05-07 18:55 | 46.34473 | 0.59238 | 37965 ft | 466 kts | 345° |
| 2026-05-07 18:56 | 46.40839 | 0.57437 | 37973 ft | 466 kts | 345° |
| 2026-05-07 18:56 | 46.47202 | 0.55632 | 37966 ft | 466 kts | 345° |
| 2026-05-07 18:57 | 46.53583 | 0.53896 | 37966 ft | 468 kts | 351° |
| 2026-05-07 18:57 | 46.60127 | 0.54213 | 37970 ft | 476 kts | 9° |
| 2026-05-07 18:58 | 46.66582 | 0.56381 | 37967 ft | 477 kts | 11° |
| 2026-05-07 18:58 | 46.73032 | 0.58641 | 37976 ft | 477 kts | 11° |
| 2026-05-07 18:59 | 46.79494 | 0.60819 | 37977 ft | 477 kts | 10° |
| 2026-05-07 18:59 | 46.85962 | 0.62960 | 37972 ft | 477 kts | 10° |
| 2026-05-07 19:00 | 46.91343 | 0.64744 | 37973 ft | 477 kts | 10° |
| 2026-05-07 19:00 | 46.98909 | 0.67264 | 37982 ft | 477 kts | 10° |
| 2026-05-07 19:01 | 47.05385 | 0.69346 | 37971 ft | 475 kts | 6° |
| 2026-05-07 19:01 | 47.11943 | 0.70171 | 37980 ft | 473 kts | 0° |
| 2026-05-07 19:02 | 47.18509 | 0.70697 | 37996 ft | 472 kts | 0° |
| 2026-05-07 19:02 | 47.25068 | 0.71315 | 37988 ft | 472 kts | 1° |
| 2026-05-07 19:03 | 47.31623 | 0.72001 | 37996 ft | 472 kts | 1° |
| 2026-05-07 19:03 | 47.38169 | 0.72695 | 37993 ft | 472 kts | 1° |
| 2026-05-07 19:04 | 47.44715 | 0.73385 | 38000 ft | 471 kts | 1° |
| 2026-05-07 19:04 | 47.51193 | 0.74488 | 37993 ft | 474 kts | 10° |
| 2026-05-07 19:05 | 47.57591 | 0.77175 | 37995 ft | 475 kts | 15° |
| 2026-05-07 19:05 | 47.63863 | 0.80071 | 37998 ft | 475 kts | 15° |
| 2026-05-07 19:06 | 47.70182 | 0.82970 | 37990 ft | 475 kts | 14° |
| 2026-05-07 19:06 | 47.77095 | 0.86098 | 37988 ft | 475 kts | 14° |
| 2026-05-07 19:07 | 47.81314 | 0.88000 | 38012 ft | 475 kts | 14° |
| 2026-05-07 19:07 | 47.87633 | 0.90851 | 37998 ft | 475 kts | 14° |
| 2026-05-07 19:08 | 47.93959 | 0.93713 | 38000 ft | 475 kts | 14° |
| 2026-05-07 19:08 | 48.00274 | 0.96581 | 38001 ft | 475 kts | 14° |
| 2026-05-07 19:09 | 48.06153 | 0.99257 | 38006 ft | 476 kts | 14° |
| 2026-05-07 19:09 | 48.12488 | 1.02148 | 38000 ft | 476 kts | 14° |
| 2026-05-07 19:10 | 48.17752 | 1.04555 | 38008 ft | 476 kts | 14° |
| 2026-05-07 19:10 | 48.24084 | 1.07458 | 38015 ft | 476 kts | 15° |
| 2026-05-07 19:11 | 48.30414 | 1.10368 | 38008 ft | 476 kts | 15° |
| 2026-05-07 19:11 | 48.36745 | 1.13286 | 38007 ft | 476 kts | 15° |
| 2026-05-07 19:12 | 48.43074 | 1.16211 | 38011 ft | 476 kts | 15° |
| 2026-05-07 19:12 | 48.49398 | 1.19140 | 38020 ft | 475 kts | 15° |
| 2026-05-07 19:13 | 48.55720 | 1.22077 | 38024 ft | 475 kts | 15° |
| 2026-05-07 19:13 | 48.62033 | 1.25017 | 38021 ft | 475 kts | 15° |
| 2026-05-07 19:14 | 48.68346 | 1.27965 | 38024 ft | 474 kts | 15° |
| 2026-05-07 19:14 | 48.74649 | 1.30916 | 38006 ft | 474 kts | 15° |
| 2026-05-07 19:15 | 48.80953 | 1.33875 | 38020 ft | 474 kts | 15° |
| 2026-05-07 19:15 | 48.87242 | 1.36834 | 38024 ft | 473 kts | 15° |
| 2026-05-07 19:16 | 48.93536 | 1.39805 | 38023 ft | 473 kts | 15° |
| 2026-05-07 19:16 | 48.99787 | 1.42762 | 38032 ft | 473 kts | 15° |
| 2026-05-07 19:17 | 49.06079 | 1.45747 | 38025 ft | 474 kts | 15° |
| 2026-05-07 19:17 | 49.12372 | 1.48741 | 38030 ft | 474 kts | 15° |
| 2026-05-07 19:18 | 49.18670 | 1.51745 | 38024 ft | 474 kts | 15° |
| 2026-05-07 19:18 | 49.24873 | 1.55159 | 38031 ft | 476 kts | 26° |
| 2026-05-07 19:19 | 49.30265 | 1.61042 | 38055 ft | 479 kts | 43° |
| 2026-05-07 19:19 | 49.35039 | 1.68173 | 38044 ft | 479 kts | 43° |
| 2026-05-07 19:20 | 49.39811 | 1.75305 | 38041 ft | 479 kts | 43° |
| 2026-05-07 19:20 | 49.44630 | 1.82392 | 38042 ft | 479 kts | 43° |
| 2026-05-07 19:21 | 49.49445 | 1.89465 | 38053 ft | 479 kts | 43° |
| 2026-05-07 19:21 | 49.54257 | 1.96563 | 38054 ft | 479 kts | 43° |
| 2026-05-07 19:22 | 49.59070 | 2.03681 | 38049 ft | 480 kts | 43° |
| 2026-05-07 19:22 | 49.63879 | 2.10814 | 38052 ft | 480 kts | 43° |
| 2026-05-07 19:23 | 49.68681 | 2.17959 | 38055 ft | 480 kts | 43° |
| 2026-05-07 19:23 | 49.73481 | 2.25121 | 38047 ft | 480 kts | 43° |
| 2026-05-07 19:24 | 49.75892 | 2.28725 | 37797 ft | 482 kts | 43° |
| 2026-05-07 19:24 | 49.78296 | 2.32325 | 37522 ft | 479 kts | 43° |
| 2026-05-07 19:24 | 49.80681 | 2.35903 | 37251 ft | 476 kts | 43° |
| 2026-05-07 19:24 | 49.83057 | 2.39472 | 36989 ft | 475 kts | 43° |
| 2026-05-07 19:25 | 49.85412 | 2.43015 | 36576 ft | 469 kts | 43° |
| 2026-05-07 19:25 | 49.87747 | 2.46532 | 36000 ft | 468 kts | 43° |
| 2026-05-07 19:25 | 49.90083 | 2.50055 | 35375 ft | 469 kts | 43° |
| 2026-05-07 19:25 | 49.92394 | 2.53545 | 34750 ft | 470 kts | 43° |
| 2026-05-07 19:26 | 49.94737 | 2.57088 | 34149 ft | 470 kts | 43° |
| 2026-05-07 19:26 | 49.97075 | 2.60633 | 33491 ft | 470 kts | 43° |
| 2026-05-07 19:26 | 49.99412 | 2.64189 | 32751 ft | 470 kts | 43° |
| 2026-05-07 19:26 | 50.01747 | 2.67753 | 31956 ft | 472 kts | 43° |
| 2026-05-07 19:27 | 50.04095 | 2.71341 | 31157 ft | 474 kts | 43° |
| 2026-05-07 19:27 | 50.06448 | 2.74945 | 30378 ft | 475 kts | 44° |
| 2026-05-07 19:27 | 50.08803 | 2.78555 | 29533 ft | 475 kts | 44° |
| 2026-05-07 19:27 | 50.11160 | 2.82175 | 28601 ft | 476 kts | 44° |
| 2026-05-07 19:28 | 50.13519 | 2.85800 | 27645 ft | 477 kts | 44° |
| 2026-05-07 19:28 | 50.15884 | 2.89440 | 26653 ft | 479 kts | 44° |
| 2026-05-07 19:28 | 50.18260 | 2.93102 | 25645 ft | 481 kts | 44° |
| 2026-05-07 19:28 | 50.20628 | 2.96759 | 24970 ft | 476 kts | 44° |
| 2026-05-07 19:29 | 50.22961 | 3.00366 | 24408 ft | 469 kts | 44° |
| 2026-05-07 19:29 | 50.25260 | 3.03927 | 23860 ft | 461 kts | 44° |
| 2026-05-07 19:29 | 50.27521 | 3.07434 | 23382 ft | 456 kts | 44° |
| 2026-05-07 19:29 | 50.29756 | 3.10903 | 22908 ft | 463 kts | 44° |
| 2026-05-07 19:30 | 50.32071 | 3.14501 | 22616 ft | 474 kts | 44° |
| 2026-05-07 19:30 | 50.34389 | 3.18111 | 22431 ft | 461 kts | 44° |
| 2026-05-07 19:30 | 50.36618 | 3.21589 | 22253 ft | 445 kts | 44° |
| 2026-05-07 19:30 | 50.38771 | 3.24951 | 22109 ft | 429 kts | 44° |
| 2026-05-07 19:31 | 50.40851 | 3.28202 | 22080 ft | 418 kts | 44° |
| 2026-05-07 19:31 | 50.42910 | 3.31414 | 22090 ft | 420 kts | 44° |
| 2026-05-07 19:31 | 50.45001 | 3.34672 | 22084 ft | 425 kts | 44° |
| 2026-05-07 19:31 | 50.47098 | 3.37945 | 22074 ft | 424 kts | 44° |
| 2026-05-07 19:32 | 50.49191 | 3.41216 | 22072 ft | 423 kts | 44° |
| 2026-05-07 19:32 | 50.51272 | 3.44474 | 22074 ft | 422 kts | 44° |
| 2026-05-07 19:32 | 50.53353 | 3.47737 | 22075 ft | 422 kts | 44° |
| 2026-05-07 19:32 | 50.55476 | 3.50908 | 22070 ft | 421 kts | 38° |
| 2026-05-07 19:33 | 50.57833 | 3.53627 | 22073 ft | 420 kts | 31° |
| 2026-05-07 19:33 | 50.60287 | 3.56128 | 22080 ft | 421 kts | 34° |
| 2026-05-07 19:33 | 50.62561 | 3.59047 | 22072 ft | 423 kts | 41° |
| 2026-05-07 19:33 | 50.64599 | 3.62366 | 22017 ft | 418 kts | 49° |
| 2026-05-07 19:34 | 50.66408 | 3.65856 | 21344 ft | 408 kts | 51° |
| 2026-05-07 19:34 | 50.68144 | 3.69383 | 20362 ft | 407 kts | 52° |
| 2026-05-07 19:34 | 50.69867 | 3.72926 | 19389 ft | 406 kts | 52° |
| 2026-05-07 19:34 | 50.71570 | 3.76443 | 18570 ft | 401 kts | 52° |
| 2026-05-07 19:35 | 50.73249 | 3.79919 | 17726 ft | 395 kts | 52° |
| 2026-05-07 19:35 | 50.74904 | 3.83341 | 16869 ft | 389 kts | 52° |
| 2026-05-07 19:35 | 50.76537 | 3.86716 | 16025 ft | 384 kts | 52° |
| 2026-05-07 19:35 | 50.78155 | 3.90049 | 15206 ft | 380 kts | 52° |
| 2026-05-07 19:36 | 50.79753 | 3.93333 | 14408 ft | 375 kts | 52° |
| 2026-05-07 19:36 | 50.81340 | 3.96585 | 13615 ft | 371 kts | 52° |
| 2026-05-07 19:36 | 50.82908 | 3.99788 | 12783 ft | 366 kts | 52° |
| 2026-05-07 19:36 | 50.84456 | 4.02948 | 11996 ft | 361 kts | 52° |
| 2026-05-07 19:37 | 50.85983 | 4.06069 | 11226 ft | 356 kts | 52° |
| 2026-05-07 19:37 | 50.87487 | 4.09146 | 10467 ft | 351 kts | 52° |
| 2026-05-07 19:37 | 50.88973 | 4.12192 | 9704 ft | 347 kts | 52° |
| 2026-05-07 19:37 | 50.90440 | 4.15200 | 8917 ft | 342 kts | 52° |
| 2026-05-07 19:38 | 50.91891 | 4.18171 | 8440 ft | 342 kts | 52° |
| 2026-05-07 19:38 | 50.93343 | 4.21137 | 8288 ft | 340 kts | 52° |
| 2026-05-07 19:38 | 50.94791 | 4.24092 | 8161 ft | 339 kts | 52° |
| 2026-05-07 19:38 | 50.96236 | 4.27042 | 8091 ft | 339 kts | 52° |
| 2026-05-07 19:39 | 50.97678 | 4.29982 | 8002 ft | 333 kts | 52° |
| 2026-05-07 19:39 | 50.99063 | 4.32805 | 7886 ft | 316 kts | 52° |
| 2026-05-07 19:39 | 51.00374 | 4.35476 | 7749 ft | 297 kts | 52° |
| 2026-05-07 19:39 | 51.01505 | 4.38090 | 7571 ft | 281 kts | 65° |
| 2026-05-07 19:40 | 51.02210 | 4.40939 | 7161 ft | 275 kts | 71° |
| 2026-05-07 19:40 | 51.02826 | 4.43811 | 6684 ft | 274 kts | 72° |
| 2026-05-07 19:40 | 51.03428 | 4.46670 | 6225 ft | 272 kts | 72° |
| 2026-05-07 19:40 | 51.04020 | 4.49497 | 5787 ft | 268 kts | 72° |
| 2026-05-07 19:41 | 51.04602 | 4.52290 | 5352 ft | 264 kts | 72° |
| 2026-05-07 19:41 | 51.05175 | 4.55045 | 4920 ft | 261 kts | 72° |
| 2026-05-07 19:41 | 51.05739 | 4.57774 | 4466 ft | 259 kts | 72° |
| 2026-05-07 19:41 | 51.06299 | 4.60486 | 3988 ft | 259 kts | 72° |
| 2026-05-07 19:42 | 51.06860 | 4.63219 | 3681 ft | 259 kts | 72° |
| 2026-05-07 19:42 | 51.07408 | 4.65886 | 3606 ft | 249 kts | 72° |
| 2026-05-07 19:42 | 51.07916 | 4.68463 | 3533 ft | 240 kts | 78° |
| 2026-05-07 19:42 | 51.07863 | 4.71024 | 3450 ft | 230 kts | 107° |
| 2026-05-07 19:43 | 51.07314 | 4.73376 | 3302 ft | 225 kts | 111° |
| 2026-05-07 19:43 | 51.06718 | 4.75669 | 3071 ft | 224 kts | 112° |
| 2026-05-07 19:43 | 51.06116 | 4.77955 | 2822 ft | 224 kts | 112° |
| 2026-05-07 19:43 | 51.05513 | 4.80231 | 2581 ft | 223 kts | 112° |
| 2026-05-07 19:44 | 51.04908 | 4.82503 | 2360 ft | 223 kts | 112° |
| 2026-05-07 19:44 | 51.04132 | 4.84617 | 2104 ft | 223 kts | 136° |
| 2026-05-07 19:44 | 51.02771 | 4.85751 | 2040 ft | 226 kts | 169° |
| 2026-05-07 19:44 | 51.01214 | 4.85500 | 2009 ft | 229 kts | 203° |
| 2026-05-07 19:45 | 50.99917 | 4.84061 | 2014 ft | 229 kts | 221° |
| 2026-05-07 19:45 | 50.98738 | 4.82363 | 2004 ft | 229 kts | 222° |
| 2026-05-07 19:45 | 50.97566 | 4.80642 | 1999 ft | 230 kts | 222° |
| 2026-05-07 19:45 | 50.96392 | 4.78910 | 1996 ft | 230 kts | 223° |
| 2026-05-07 19:46 | 50.95462 | 4.76882 | 1987 ft | 230 kts | 252° |
| 2026-05-07 19:46 | 50.95098 | 4.74476 | 2003 ft | 218 kts | 251° |
| 2026-05-07 19:46 | 50.94520 | 4.72358 | 2000 ft | 202 kts | 246° |
| 2026-05-07 19:46 | 50.94047 | 4.70361 | 1996 ft | 187 kts | 250° |
| 2026-05-07 19:47 | 50.93613 | 4.68418 | 2011 ft | 187 kts | 250° |
| 2026-05-07 19:47 | 50.93170 | 4.66490 | 2012 ft | 190 kts | 249° |
| 2026-05-07 19:47 | 50.92709 | 4.64501 | 1788 ft | 192 kts | 249° |
| 2026-05-07 19:47 | 50.92263 | 4.62577 | 1548 ft | 180 kts | 249° |
| 2026-05-07 19:48 | 50.91845 | 4.60774 | 1313 ft | 169 kts | 250° |
| 2026-05-07 19:48 | 50.91462 | 4.59116 | 1089 ft | 155 kts | 250° |
| 2026-05-07 19:48 | 50.91091 | 4.57513 | 886 ft | 155 kts | 250° |
| 2026-05-07 19:48 | 50.90717 | 4.55896 | 670 ft | 153 kts | 250° |
| 2026-05-07 19:49 | 50.90360 | 4.54349 | 471 ft | 151 kts | 250° |
| 2026-05-07 19:49 | 50.90003 | 4.52789 | 282 ft | 151 kts | 251° |
| 2026-05-07 19:49 | 50.89643 | 4.51238 | 152 ft | 145 kts | 250° |
| 2026-05-07 19:49 | 50.89346 | 4.49947 | 149 ft | 94 kts | 250° |
| 2026-05-07 19:50 | 50.89228 | 4.49432 | 139 ft | 32 kts | 251° |
| 2026-05-07 19:50 | 50.89282 | 4.49214 | 140 ft | 17 kts | 309° |
| 2026-05-07 19:50 | 50.89315 | 4.49151 | 139 ft | 5 kts | 309° |
| 2026-05-07 19:50 | 50.89333 | 4.49108 | 140 ft | 5 kts | 290° |
| 2026-05-07 19:51 | 50.89363 | 4.49095 | 141 ft | 5 kts | 13° |
| 2026-05-07 19:51 | 50.89396 | 4.49112 | 140 ft | 5 kts | 19° |
| 2026-05-07 19:51 | 50.89428 | 4.49129 | 141 ft | 5 kts | 18° |
| 2026-05-07 19:51 | 50.89460 | 4.49144 | 141 ft | 5 kts | 17° |
| 2026-05-07 19:52 | 50.89493 | 4.49160 | 142 ft | 6 kts | 17° |
| 2026-05-07 19:52 | 50.89560 | 4.49192 | 143 ft | 12 kts | 17° |
| 2026-05-07 19:52 | 50.89634 | 4.49257 | 141 ft | 12 kts | 24° |
| 2026-05-07 19:52 | 50.89715 | 4.49292 | 143 ft | 12 kts | 13° |
| 2026-05-07 19:53 | 50.89784 | 4.49316 | 143 ft | 8 kts | 13° |
| 2026-05-07 19:53 | 50.89796 | 4.49321 | 143 ft | 0 kts | 15° |
| 2026-05-07 19:53 | 50.89796 | 4.49322 | 143 ft | 1 kts | 15° |
| 2026-05-07 19:53 | 50.89849 | 4.49344 | 143 ft | 15 kts | 15° |
| 2026-05-07 19:54 | 50.89976 | 4.49398 | 142 ft | 21 kts | 15° |
| 2026-05-07 19:54 | 50.90121 | 4.49458 | 137 ft | 22 kts | 14° |
| 2026-05-07 19:54 | 50.90268 | 4.49519 | 136 ft | 20 kts | 14° |
| 2026-05-07 19:54 | 50.90359 | 4.49532 | 135 ft | 11 kts | 338° |
| 2026-05-07 19:55 | 50.90410 | 4.49447 | 133 ft | 12 kts | 301° |
| 2026-05-07 19:55 | 50.90432 | 4.49389 | 132 ft | 0 kts | 295° |
| 2026-05-07 19:55 | 50.90425 | 4.49371 | 133 ft | 4 kts | 236° |
| 2026-05-07 19:55 | 50.90409 | 4.49336 | 134 ft | 4 kts | 235° |
| 2026-05-07 19:56 | 50.90400 | 4.49312 | 134 ft | 4 kts | 240° |
| 2026-05-07 19:56 | 50.90386 | 4.49267 | 135 ft | 6 kts | 244° |
| 2026-05-07 19:56 | 50.90357 | 4.49164 | 136 ft | 12 kts | 245° |
| 2026-05-07 19:56 | 50.90336 | 4.49091 | 137 ft | 7 kts | 246° |
| 2026-05-07 19:57 | 50.90355 | 4.49023 | 135 ft | 9 kts | 333° |
| 2026-05-07 19:57 | 50.90391 | 4.48997 | 133 ft | 4 kts | 335° |
| 2026-05-07 19:57 | 50.90400 | 4.48991 | 133 ft | 0 kts | 335° |